sensor_id;sensor_type;location;lat;lon;timestamp;P1;durP1;ratioP1;P2;durP2;ratioP2
1775;SDS011;885;42.626;23.200;2022-10-24T00:02:03;5.80;;;4.67;;
1775;SDS011;885;42.626;23.200;2022-10-24T00:04:34;5.93;;;4.20;;
1775;SDS011;885;42.626;23.200;2022-10-24T00:07:02;8.13;;;4.40;;
1775;SDS011;885;42.626;23.200;2022-10-24T00:09:29;8.13;;;4.20;;
1775;SDS011;885;42.626;23.200;2022-10-24T00:11:56;5.30;;;4.27;;
1775;SDS011;885;42.626;23.200;2022-10-24T00:14:24;5.40;;;4.90;;
1775;SDS011;885;42.626;23.200;2022-10-24T00:16:52;5.30;;;4.00;;
1775;SDS011;885;42.626;23.200;2022-10-24T00:19:19;5.40;;;4.60;;
1775;SDS011;885;42.626;23.200;2022-10-24T00:21:45;8.00;;;5.40;;
1775;SDS011;885;42.626;23.200;2022-10-24T00:24:13;8.13;;;6.13;;
1775;SDS011;885;42.626;23.200;2022-10-24T00:26:40;9.20;;;5.80;;
1775;SDS011;885;42.626;23.200;2022-10-24T00:29:07;8.63;;;6.80;;
1775;SDS011;885;42.626;23.200;2022-10-24T00:31:35;8.20;;;6.43;;
1775;SDS011;885;42.626;23.200;2022-10-24T00:34:03;8.57;;;5.30;;
1775;SDS011;885;42.626;23.200;2022-10-24T00:36:31;10.83;;;6.00;;
1775;SDS011;885;42.626;23.200;2022-10-24T00:38:58;6.20;;;5.30;;
1775;SDS011;885;42.626;23.200;2022-10-24T00:41:25;8.53;;;5.70;;
1775;SDS011;885;42.626;23.200;2022-10-24T00:46:41;7.83;;;5.00;;
1775;SDS011;885;42.626;23.200;2022-10-24T00:49:11;10.13;;;6.37;;
1775;SDS011;885;42.626;23.200;2022-10-24T00:51:40;8.40;;;5.10;;
1775;SDS011;885;42.626;23.200;2022-10-24T00:54:09;9.27;;;5.73;;
1775;SDS011;885;42.626;23.200;2022-10-24T00:56:40;7.47;;;5.70;;
1775;SDS011;885;42.626;23.200;2022-10-24T00:59:09;9.10;;;5.27;;
1775;SDS011;885;42.626;23.200;2022-10-24T01:01:38;8.27;;;4.77;;
1775;SDS011;885;42.626;23.200;2022-10-24T01:04:08;5.10;;;4.20;;
1775;SDS011;885;42.626;23.200;2022-10-24T01:06:40;8.30;;;5.00;;
1775;SDS011;885;42.626;23.200;2022-10-24T01:09:15;6.53;;;4.73;;
1775;SDS011;885;42.626;23.200;2022-10-24T01:11:57;5.80;;;4.70;;
1775;SDS011;885;42.626;23.200;2022-10-24T01:14:37;8.27;;;6.00;;
1775;SDS011;885;42.626;23.200;2022-10-24T01:17:12;10.63;;;5.43;;
1775;SDS011;885;42.626;23.200;2022-10-24T01:22:46;5.57;;;4.90;;
1775;SDS011;885;42.626;23.200;2022-10-24T01:25:28;6.50;;;5.20;;
1775;SDS011;885;42.626;23.200;2022-10-24T01:28:07;11.07;;;5.67;;
1775;SDS011;885;42.626;23.200;2022-10-24T01:30:40;7.30;;;5.23;;
1775;SDS011;885;42.626;23.200;2022-10-24T01:33:12;9.10;;;5.60;;
1775;SDS011;885;42.626;23.200;2022-10-24T01:35:46;7.13;;;5.00;;
1775;SDS011;885;42.626;23.200;2022-10-24T01:38:18;5.43;;;4.57;;
1775;SDS011;885;42.626;23.200;2022-10-24T01:40:51;7.73;;;4.53;;
1775;SDS011;885;42.626;23.200;2022-10-24T01:43:23;8.60;;;5.07;;
1775;SDS011;885;42.626;23.200;2022-10-24T01:45:55;9.37;;;5.57;;
1775;SDS011;885;42.626;23.200;2022-10-24T01:48:26;7.20;;;4.60;;
1775;SDS011;885;42.626;23.200;2022-10-24T01:50:56;7.60;;;5.93;;
1775;SDS011;885;42.626;23.200;2022-10-24T01:53:28;7.30;;;4.40;;
1775;SDS011;885;42.626;23.200;2022-10-24T01:55:56;6.37;;;4.47;;
1775;SDS011;885;42.626;23.200;2022-10-24T01:58:24;7.23;;;4.90;;
1775;SDS011;885;42.626;23.200;2022-10-24T02:00:53;6.03;;;5.03;;
1775;SDS011;885;42.626;23.200;2022-10-24T02:03:28;5.80;;;5.07;;
1775;SDS011;885;42.626;23.200;2022-10-24T02:05:58;7.40;;;5.10;;
1775;SDS011;885;42.626;23.200;2022-10-24T02:08:29;5.17;;;4.67;;
1775;SDS011;885;42.626;23.200;2022-10-24T02:11:00;6.00;;;4.60;;
1775;SDS011;885;42.626;23.200;2022-10-24T02:13:33;5.63;;;4.70;;
1775;SDS011;885;42.626;23.200;2022-10-24T02:16:06;7.33;;;4.57;;
1775;SDS011;885;42.626;23.200;2022-10-24T02:18:36;10.43;;;5.13;;
1775;SDS011;885;42.626;23.200;2022-10-24T02:21:10;8.10;;;5.30;;
1775;SDS011;885;42.626;23.200;2022-10-24T02:23:47;6.07;;;5.07;;
1775;SDS011;885;42.626;23.200;2022-10-24T02:26:21;6.43;;;4.40;;
1775;SDS011;885;42.626;23.200;2022-10-24T02:28:56;8.43;;;4.70;;
1775;SDS011;885;42.626;23.200;2022-10-24T02:31:29;10.83;;;5.60;;
1775;SDS011;885;42.626;23.200;2022-10-24T02:34:00;9.37;;;5.10;;
1775;SDS011;885;42.626;23.200;2022-10-24T02:36:29;8.47;;;5.20;;
1775;SDS011;885;42.626;23.200;2022-10-24T02:38:58;7.63;;;5.27;;
1775;SDS011;885;42.626;23.200;2022-10-24T02:41:29;6.07;;;5.20;;
1775;SDS011;885;42.626;23.200;2022-10-24T02:44:00;7.27;;;5.60;;
1775;SDS011;885;42.626;23.200;2022-10-24T02:46:28;10.37;;;7.10;;
1775;SDS011;885;42.626;23.200;2022-10-24T02:48:57;8.67;;;7.30;;
1775;SDS011;885;42.626;23.200;2022-10-24T02:51:27;5.93;;;5.33;;
1775;SDS011;885;42.626;23.200;2022-10-24T02:53:58;7.43;;;5.60;;
1775;SDS011;885;42.626;23.200;2022-10-24T02:56:26;8.30;;;5.10;;
1775;SDS011;885;42.626;23.200;2022-10-24T02:58:53;9.10;;;6.23;;
1775;SDS011;885;42.626;23.200;2022-10-24T03:01:20;9.13;;;7.40;;
1775;SDS011;885;42.626;23.200;2022-10-24T03:03:47;9.07;;;6.40;;
1775;SDS011;885;42.626;23.200;2022-10-24T03:06:14;8.87;;;6.10;;
1775;SDS011;885;42.626;23.200;2022-10-24T03:08:42;7.43;;;5.40;;
1775;SDS011;885;42.626;23.200;2022-10-24T03:11:09;11.23;;;6.50;;
1775;SDS011;885;42.626;23.200;2022-10-24T03:13:36;8.10;;;6.13;;
1775;SDS011;885;42.626;23.200;2022-10-24T03:16:03;9.47;;;5.70;;
1775;SDS011;885;42.626;23.200;2022-10-24T03:18:30;7.13;;;4.70;;
1775;SDS011;885;42.626;23.200;2022-10-24T03:20:56;8.00;;;5.17;;
1775;SDS011;885;42.626;23.200;2022-10-24T03:23:23;7.57;;;5.43;;
1775;SDS011;885;42.626;23.200;2022-10-24T03:25:55;9.63;;;6.93;;
1775;SDS011;885;42.626;23.200;2022-10-24T03:28:23;7.10;;;5.57;;
1775;SDS011;885;42.626;23.200;2022-10-24T03:30:50;6.00;;;4.67;;
1775;SDS011;885;42.626;23.200;2022-10-24T03:33:17;9.47;;;5.57;;
1775;SDS011;885;42.626;23.200;2022-10-24T03:35:44;9.80;;;5.57;;
1775;SDS011;885;42.626;23.200;2022-10-24T03:38:11;7.27;;;6.53;;
1775;SDS011;885;42.626;23.200;2022-10-24T03:40:38;7.27;;;5.30;;
1775;SDS011;885;42.626;23.200;2022-10-24T03:43:06;10.80;;;5.83;;
1775;SDS011;885;42.626;23.200;2022-10-24T03:45:33;7.47;;;5.70;;
1775;SDS011;885;42.626;23.200;2022-10-24T03:48:01;9.53;;;6.53;;
1775;SDS011;885;42.626;23.200;2022-10-24T03:50:28;8.30;;;4.70;;
1775;SDS011;885;42.626;23.200;2022-10-24T03:52:55;8.77;;;5.23;;
1775;SDS011;885;42.626;23.200;2022-10-24T03:55:22;8.27;;;5.63;;
1775;SDS011;885;42.626;23.200;2022-10-24T03:57:48;11.50;;;6.17;;
1775;SDS011;885;42.626;23.200;2022-10-24T04:00:17;8.23;;;5.63;;
1775;SDS011;885;42.626;23.200;2022-10-24T04:02:44;12.77;;;8.13;;
1775;SDS011;885;42.626;23.200;2022-10-24T04:05:11;9.20;;;7.13;;
1775;SDS011;885;42.626;23.200;2022-10-24T04:07:38;9.10;;;6.17;;
1775;SDS011;885;42.626;23.200;2022-10-24T04:10:06;9.83;;;5.83;;
1775;SDS011;885;42.626;23.200;2022-10-24T04:12:33;7.97;;;4.67;;
1775;SDS011;885;42.626;23.200;2022-10-24T04:15:00;10.97;;;5.33;;
1775;SDS011;885;42.626;23.200;2022-10-24T04:17:28;8.87;;;5.70;;
1775;SDS011;885;42.626;23.200;2022-10-24T04:19:55;6.43;;;5.83;;
1775;SDS011;885;42.626;23.200;2022-10-24T04:22:22;6.00;;;5.47;;
1775;SDS011;885;42.626;23.200;2022-10-24T04:24:48;11.60;;;5.70;;
1775;SDS011;885;42.626;23.200;2022-10-24T04:27:15;8.27;;;5.10;;
1775;SDS011;885;42.626;23.200;2022-10-24T04:29:42;7.50;;;5.53;;
1775;SDS011;885;42.626;23.200;2022-10-24T04:32:09;6.07;;;5.30;;
1775;SDS011;885;42.626;23.200;2022-10-24T04:34:37;11.13;;;5.60;;
1775;SDS011;885;42.626;23.200;2022-10-24T04:37:04;8.30;;;4.63;;
1775;SDS011;885;42.626;23.200;2022-10-24T04:39:31;6.83;;;5.47;;
1775;SDS011;885;42.626;23.200;2022-10-24T04:41:58;10.10;;;5.13;;
1775;SDS011;885;42.626;23.200;2022-10-24T04:44:25;12.47;;;8.50;;
1775;SDS011;885;42.626;23.200;2022-10-24T04:46:51;10.87;;;7.00;;
1775;SDS011;885;42.626;23.200;2022-10-24T04:49:18;11.80;;;6.43;;
1775;SDS011;885;42.626;23.200;2022-10-24T04:51:47;8.33;;;6.37;;
1775;SDS011;885;42.626;23.200;2022-10-24T04:54:13;32.47;;;22.23;;
1775;SDS011;885;42.626;23.200;2022-10-24T04:56:40;18.80;;;14.87;;
1775;SDS011;885;42.626;23.200;2022-10-24T04:59:07;14.10;;;11.10;;
1775;SDS011;885;42.626;23.200;2022-10-24T05:01:34;12.70;;;8.13;;
1775;SDS011;885;42.626;23.200;2022-10-24T05:04:01;11.83;;;7.63;;
1775;SDS011;885;42.626;23.200;2022-10-24T05:06:27;12.23;;;7.93;;
1775;SDS011;885;42.626;23.200;2022-10-24T05:08:55;8.93;;;7.17;;
1775;SDS011;885;42.626;23.200;2022-10-24T05:11:22;9.30;;;6.13;;
1775;SDS011;885;42.626;23.200;2022-10-24T05:13:49;8.73;;;6.80;;
1775;SDS011;885;42.626;23.200;2022-10-24T05:16:16;8.33;;;5.60;;
1775;SDS011;885;42.626;23.200;2022-10-24T05:18:42;8.73;;;6.10;;
1775;SDS011;885;42.626;23.200;2022-10-24T05:21:09;8.50;;;5.83;;
1775;SDS011;885;42.626;23.200;2022-10-24T05:23:36;7.37;;;4.73;;
1775;SDS011;885;42.626;23.200;2022-10-24T05:26:05;9.10;;;5.77;;
1775;SDS011;885;42.626;23.200;2022-10-24T05:28:31;9.23;;;6.87;;
1775;SDS011;885;42.626;23.200;2022-10-24T05:30:58;10.93;;;6.60;;
1775;SDS011;885;42.626;23.200;2022-10-24T05:33:25;11.30;;;6.70;;
1775;SDS011;885;42.626;23.200;2022-10-24T05:35:52;12.10;;;6.23;;
1775;SDS011;885;42.626;23.200;2022-10-24T05:38:19;9.43;;;6.20;;
1775;SDS011;885;42.626;23.200;2022-10-24T05:40:45;8.10;;;6.20;;
1775;SDS011;885;42.626;23.200;2022-10-24T05:43:15;10.07;;;6.23;;
1775;SDS011;885;42.626;23.200;2022-10-24T05:45:42;11.50;;;6.50;;
1775;SDS011;885;42.626;23.200;2022-10-24T05:48:09;9.83;;;6.67;;
1775;SDS011;885;42.626;23.200;2022-10-24T05:50:36;6.70;;;5.90;;
1775;SDS011;885;42.626;23.200;2022-10-24T05:53:02;8.67;;;6.67;;
1775;SDS011;885;42.626;23.200;2022-10-24T05:55:29;10.37;;;5.60;;
1775;SDS011;885;42.626;23.200;2022-10-24T05:57:57;7.60;;;4.80;;
1775;SDS011;885;42.626;23.200;2022-10-24T06:00:25;13.13;;;6.00;;
1775;SDS011;885;42.626;23.200;2022-10-24T06:02:53;7.47;;;5.30;;
1775;SDS011;885;42.626;23.200;2022-10-24T06:05:20;8.43;;;6.10;;
1775;SDS011;885;42.626;23.200;2022-10-24T06:07:46;9.67;;;5.93;;
1775;SDS011;885;42.626;23.200;2022-10-24T06:10:13;8.57;;;4.97;;
1775;SDS011;885;42.626;23.200;2022-10-24T06:12:40;7.83;;;5.40;;
1775;SDS011;885;42.626;23.200;2022-10-24T06:15:07;7.00;;;5.50;;
1775;SDS011;885;42.626;23.200;2022-10-24T06:17:36;9.63;;;6.67;;
1775;SDS011;885;42.626;23.200;2022-10-24T06:20:03;7.87;;;5.63;;
1775;SDS011;885;42.626;23.200;2022-10-24T06:22:31;45.60;;;9.90;;
1775;SDS011;885;42.626;23.200;2022-10-24T06:24:57;11.27;;;7.03;;
1775;SDS011;885;42.626;23.200;2022-10-24T06:27:25;11.73;;;6.23;;
1775;SDS011;885;42.626;23.200;2022-10-24T06:29:52;8.43;;;5.70;;
1775;SDS011;885;42.626;23.200;2022-10-24T06:32:19;9.20;;;6.00;;
1775;SDS011;885;42.626;23.200;2022-10-24T06:34:47;8.30;;;6.47;;
1775;SDS011;885;42.626;23.200;2022-10-24T06:37:14;7.87;;;5.60;;
1775;SDS011;885;42.626;23.200;2022-10-24T06:39:41;10.57;;;6.00;;
1775;SDS011;885;42.626;23.200;2022-10-24T06:42:08;8.50;;;6.43;;
1775;SDS011;885;42.626;23.200;2022-10-24T06:44:34;9.00;;;5.30;;
1775;SDS011;885;42.626;23.200;2022-10-24T06:47:02;10.50;;;6.37;;
1775;SDS011;885;42.626;23.200;2022-10-24T06:49:29;10.13;;;5.83;;
1775;SDS011;885;42.626;23.200;2022-10-24T06:51:57;7.73;;;5.23;;
1775;SDS011;885;42.626;23.200;2022-10-24T06:54:24;8.60;;;5.70;;
1775;SDS011;885;42.626;23.200;2022-10-24T06:56:51;7.03;;;5.87;;
1775;SDS011;885;42.626;23.200;2022-10-24T06:59:18;9.47;;;6.70;;
1775;SDS011;885;42.626;23.200;2022-10-24T07:01:44;11.50;;;6.43;;
1775;SDS011;885;42.626;23.200;2022-10-24T07:04:11;8.00;;;6.20;;
1775;SDS011;885;42.626;23.200;2022-10-24T07:06:38;10.03;;;6.27;;
1775;SDS011;885;42.626;23.200;2022-10-24T07:09:07;13.57;;;8.73;;
1775;SDS011;885;42.626;23.200;2022-10-24T07:11:36;11.37;;;7.50;;
1775;SDS011;885;42.626;23.200;2022-10-24T07:14:03;15.53;;;7.17;;
1775;SDS011;885;42.626;23.200;2022-10-24T07:16:30;11.30;;;8.10;;
1775;SDS011;885;42.626;23.200;2022-10-24T07:18:57;11.13;;;7.30;;
1775;SDS011;885;42.626;23.200;2022-10-24T07:21:25;14.27;;;8.37;;
1775;SDS011;885;42.626;23.200;2022-10-24T07:23:54;13.23;;;7.60;;
1775;SDS011;885;42.626;23.200;2022-10-24T07:26:24;10.30;;;7.23;;
1775;SDS011;885;42.626;23.200;2022-10-24T07:28:52;10.10;;;7.40;;
1775;SDS011;885;42.626;23.200;2022-10-24T07:31:20;11.77;;;7.43;;
1775;SDS011;885;42.626;23.200;2022-10-24T07:33:49;11.37;;;8.10;;
1775;SDS011;885;42.626;23.200;2022-10-24T07:36:16;13.23;;;7.63;;
1775;SDS011;885;42.626;23.200;2022-10-24T07:38:44;12.03;;;8.70;;
1775;SDS011;885;42.626;23.200;2022-10-24T07:41:11;14.20;;;8.97;;
1775;SDS011;885;42.626;23.200;2022-10-24T07:43:39;10.70;;;7.10;;
1775;SDS011;885;42.626;23.200;2022-10-24T07:46:06;10.87;;;7.63;;
1775;SDS011;885;42.626;23.200;2022-10-24T07:48:34;13.17;;;7.00;;
1775;SDS011;885;42.626;23.200;2022-10-24T07:51:03;13.77;;;8.40;;
1775;SDS011;885;42.626;23.200;2022-10-24T07:53:31;11.87;;;6.30;;
1775;SDS011;885;42.626;23.200;2022-10-24T07:55:58;11.60;;;6.33;;
1775;SDS011;885;42.626;23.200;2022-10-24T07:58:25;9.87;;;6.60;;
1775;SDS011;885;42.626;23.200;2022-10-24T08:00:53;9.90;;;6.40;;
1775;SDS011;885;42.626;23.200;2022-10-24T08:03:20;8.90;;;5.73;;
1775;SDS011;885;42.626;23.200;2022-10-24T08:05:47;8.80;;;6.60;;
1775;SDS011;885;42.626;23.200;2022-10-24T08:08:14;12.33;;;6.30;;
1775;SDS011;885;42.626;23.200;2022-10-24T08:10:41;8.60;;;5.80;;
1775;SDS011;885;42.626;23.200;2022-10-24T08:13:08;9.27;;;6.20;;
1775;SDS011;885;42.626;23.200;2022-10-24T08:15:34;9.67;;;5.80;;
1775;SDS011;885;42.626;23.200;2022-10-24T08:18:03;9.23;;;6.00;;
1775;SDS011;885;42.626;23.200;2022-10-24T08:20:30;9.13;;;6.87;;
1775;SDS011;885;42.626;23.200;2022-10-24T08:22:57;11.57;;;5.90;;
1775;SDS011;885;42.626;23.200;2022-10-24T08:25:24;12.10;;;6.63;;
1775;SDS011;885;42.626;23.200;2022-10-24T08:27:50;12.60;;;7.50;;
1775;SDS011;885;42.626;23.200;2022-10-24T08:30:17;17.37;;;10.37;;
1775;SDS011;885;42.626;23.200;2022-10-24T08:32:44;16.93;;;9.63;;
1775;SDS011;885;42.626;23.200;2022-10-24T08:35:15;16.47;;;9.87;;
1775;SDS011;885;42.626;23.200;2022-10-24T08:37:43;29.17;;;10.67;;
1775;SDS011;885;42.626;23.200;2022-10-24T08:40:11;25.37;;;15.67;;
1775;SDS011;885;42.626;23.200;2022-10-24T08:42:40;24.03;;;13.07;;
1775;SDS011;885;42.626;23.200;2022-10-24T08:45:10;28.27;;;13.57;;
1775;SDS011;885;42.626;23.200;2022-10-24T08:47:39;11.57;;;6.50;;
1775;SDS011;885;42.626;23.200;2022-10-24T08:50:12;9.57;;;5.60;;
1775;SDS011;885;42.626;23.200;2022-10-24T08:52:47;15.10;;;6.63;;
1775;SDS011;885;42.626;23.200;2022-10-24T08:55:17;14.47;;;6.77;;
1775;SDS011;885;42.626;23.200;2022-10-24T08:57:48;15.00;;;6.43;;
1775;SDS011;885;42.626;23.200;2022-10-24T09:00:18;14.40;;;6.20;;
1775;SDS011;885;42.626;23.200;2022-10-24T09:02:48;11.73;;;5.40;;
1775;SDS011;885;42.626;23.200;2022-10-24T09:05:23;12.27;;;4.70;;
1775;SDS011;885;42.626;23.200;2022-10-24T09:07:54;17.23;;;5.17;;
1775;SDS011;885;42.626;23.200;2022-10-24T09:10:30;14.40;;;5.03;;
1775;SDS011;885;42.626;23.200;2022-10-24T09:13:07;14.57;;;5.87;;
1775;SDS011;885;42.626;23.200;2022-10-24T09:15:39;10.13;;;4.73;;
1775;SDS011;885;42.626;23.200;2022-10-24T09:18:09;21.63;;;5.90;;
1775;SDS011;885;42.626;23.200;2022-10-24T09:20:44;22.70;;;8.83;;
1775;SDS011;885;42.626;23.200;2022-10-24T09:23:12;21.33;;;8.10;;
1775;SDS011;885;42.626;23.200;2022-10-24T09:25:41;20.47;;;6.70;;
1775;SDS011;885;42.626;23.200;2022-10-24T09:28:13;14.97;;;6.67;;
1775;SDS011;885;42.626;23.200;2022-10-24T09:30:40;15.20;;;5.40;;
1775;SDS011;885;42.626;23.200;2022-10-24T09:33:10;8.60;;;4.00;;
1775;SDS011;885;42.626;23.200;2022-10-24T09:35:45;9.50;;;4.70;;
1775;SDS011;885;42.626;23.200;2022-10-24T09:38:24;9.40;;;5.03;;
1775;SDS011;885;42.626;23.200;2022-10-24T09:41:01;12.07;;;5.93;;
1775;SDS011;885;42.626;23.200;2022-10-24T09:43:31;12.17;;;5.00;;
1775;SDS011;885;42.626;23.200;2022-10-24T09:46:03;10.70;;;4.70;;
1775;SDS011;885;42.626;23.200;2022-10-24T09:48:35;8.53;;;4.37;;
1775;SDS011;885;42.626;23.200;2022-10-24T09:51:17;11.70;;;4.70;;
1775;SDS011;885;42.626;23.200;2022-10-24T09:53:56;7.33;;;3.93;;
1775;SDS011;885;42.626;23.200;2022-10-24T09:56:32;10.73;;;4.10;;
1775;SDS011;885;42.626;23.200;2022-10-24T09:59:16;11.77;;;3.80;;
1775;SDS011;885;42.626;23.200;2022-10-24T10:01:55;12.17;;;3.83;;
1775;SDS011;885;42.626;23.200;2022-10-24T10:04:43;9.63;;;4.37;;
1775;SDS011;885;42.626;23.200;2022-10-24T10:07:13;10.60;;;4.10;;
1775;SDS011;885;42.626;23.200;2022-10-24T10:09:46;12.27;;;4.57;;
1775;SDS011;885;42.626;23.200;2022-10-24T10:12:24;11.10;;;4.00;;
1775;SDS011;885;42.626;23.200;2022-10-24T10:14:52;8.47;;;3.47;;
1775;SDS011;885;42.626;23.200;2022-10-24T10:17:20;6.20;;;3.70;;
1775;SDS011;885;42.626;23.200;2022-10-24T10:19:48;16.10;;;4.30;;
1775;SDS011;885;42.626;23.200;2022-10-24T10:22:22;8.67;;;4.20;;
1775;SDS011;885;42.626;23.200;2022-10-24T10:24:51;12.90;;;4.63;;
1775;SDS011;885;42.626;23.200;2022-10-24T10:27:27;11.47;;;4.53;;
1775;SDS011;885;42.626;23.200;2022-10-24T10:30:08;17.27;;;4.80;;
1775;SDS011;885;42.626;23.200;2022-10-24T10:32:42;11.77;;;5.17;;
1775;SDS011;885;42.626;23.200;2022-10-24T10:35:17;7.97;;;4.00;;
1775;SDS011;885;42.626;23.200;2022-10-24T10:37:49;12.47;;;4.77;;
1775;SDS011;885;42.626;23.200;2022-10-24T10:40:23;9.50;;;4.53;;
1775;SDS011;885;42.626;23.200;2022-10-24T10:45:44;12.87;;;4.70;;
1775;SDS011;885;42.626;23.200;2022-10-24T10:48:23;9.07;;;4.40;;
1775;SDS011;885;42.626;23.200;2022-10-24T10:51:07;10.13;;;4.30;;
1775;SDS011;885;42.626;23.200;2022-10-24T10:53:43;14.37;;;5.00;;
1775;SDS011;885;42.626;23.200;2022-10-24T10:56:21;10.03;;;4.10;;
1775;SDS011;885;42.626;23.200;2022-10-24T10:58:58;13.73;;;4.10;;
1775;SDS011;885;42.626;23.200;2022-10-24T11:01:41;13.10;;;4.50;;
1775;SDS011;885;42.626;23.200;2022-10-24T11:04:15;17.40;;;4.40;;
1775;SDS011;885;42.626;23.200;2022-10-24T11:06:50;13.83;;;5.03;;
1775;SDS011;885;42.626;23.200;2022-10-24T11:09:24;17.40;;;4.90;;
1775;SDS011;885;42.626;23.200;2022-10-24T11:11:59;18.47;;;5.00;;
1775;SDS011;885;42.626;23.200;2022-10-24T11:14:35;14.73;;;4.60;;
1775;SDS011;885;42.626;23.200;2022-10-24T11:17:06;22.13;;;5.10;;
1775;SDS011;885;42.626;23.200;2022-10-24T11:19:46;13.10;;;5.60;;
1775;SDS011;885;42.626;23.200;2022-10-24T11:22:21;8.60;;;3.63;;
1775;SDS011;885;42.626;23.200;2022-10-24T11:24:54;11.53;;;3.60;;
1775;SDS011;885;42.626;23.200;2022-10-24T11:27:27;8.50;;;4.00;;
1775;SDS011;885;42.626;23.200;2022-10-24T11:30:02;15.00;;;4.27;;
1775;SDS011;885;42.626;23.200;2022-10-24T11:32:32;7.47;;;4.20;;
1775;SDS011;885;42.626;23.200;2022-10-24T11:35:06;11.13;;;4.33;;
1775;SDS011;885;42.626;23.200;2022-10-24T11:37:46;10.10;;;4.30;;
1775;SDS011;885;42.626;23.200;2022-10-24T11:40:18;15.57;;;4.17;;
1775;SDS011;885;42.626;23.200;2022-10-24T11:42:48;12.20;;;5.10;;
1775;SDS011;885;42.626;23.200;2022-10-24T11:45:21;11.77;;;4.97;;
1775;SDS011;885;42.626;23.200;2022-10-24T11:47:58;12.60;;;4.27;;
1775;SDS011;885;42.626;23.200;2022-10-24T11:50:35;13.87;;;3.77;;
1775;SDS011;885;42.626;23.200;2022-10-24T11:53:13;15.53;;;5.10;;
1775;SDS011;885;42.626;23.200;2022-10-24T11:55:52;14.93;;;4.63;;
1775;SDS011;885;42.626;23.200;2022-10-24T11:58:22;9.80;;;4.20;;
1775;SDS011;885;42.626;23.200;2022-10-24T12:00:57;13.63;;;4.77;;
1775;SDS011;885;42.626;23.200;2022-10-24T12:03:41;11.70;;;4.80;;
1775;SDS011;885;42.626;23.200;2022-10-24T12:06:23;12.10;;;4.27;;
1775;SDS011;885;42.626;23.200;2022-10-24T12:09:08;16.00;;;5.40;;
1775;SDS011;885;42.626;23.200;2022-10-24T12:11:56;21.43;;;5.30;;
1775;SDS011;885;42.626;23.200;2022-10-24T12:14:46;13.27;;;5.13;;
1775;SDS011;885;42.626;23.200;2022-10-24T12:17:30;20.13;;;4.67;;
1775;SDS011;885;42.626;23.200;2022-10-24T12:20:06;11.50;;;4.60;;
1775;SDS011;885;42.626;23.200;2022-10-24T12:22:39;12.07;;;4.57;;
1775;SDS011;885;42.626;23.200;2022-10-24T12:25:16;17.97;;;6.40;;
1775;SDS011;885;42.626;23.200;2022-10-24T12:27:52;11.10;;;4.70;;
1775;SDS011;885;42.626;23.200;2022-10-24T12:30:20;16.17;;;5.60;;
1775;SDS011;885;42.626;23.200;2022-10-24T12:32:50;13.50;;;4.23;;
1775;SDS011;885;42.626;23.200;2022-10-24T12:41:37;16.87;;;4.70;;
1775;SDS011;885;42.626;23.200;2022-10-24T12:47:16;19.97;;;5.77;;
1775;SDS011;885;42.626;23.200;2022-10-24T12:49:52;21.97;;;5.20;;
1775;SDS011;885;42.626;23.200;2022-10-24T12:55:28;10.73;;;4.20;;
1775;SDS011;885;42.626;23.200;2022-10-24T12:58:20;12.23;;;4.80;;
1775;SDS011;885;42.626;23.200;2022-10-24T13:00:53;15.03;;;5.00;;
1775;SDS011;885;42.626;23.200;2022-10-24T13:03:27;19.13;;;5.10;;
1775;SDS011;885;42.626;23.200;2022-10-24T13:06:08;14.87;;;5.83;;
1775;SDS011;885;42.626;23.200;2022-10-24T13:08:46;16.93;;;5.57;;
1775;SDS011;885;42.626;23.200;2022-10-24T13:11:35;12.70;;;5.27;;
1775;SDS011;885;42.626;23.200;2022-10-24T13:14:21;12.40;;;6.40;;
1775;SDS011;885;42.626;23.200;2022-10-24T13:16:59;14.47;;;7.20;;
1775;SDS011;885;42.626;23.200;2022-10-24T13:19:33;14.73;;;7.10;;
1775;SDS011;885;42.626;23.200;2022-10-24T13:22:01;14.13;;;7.13;;
1775;SDS011;885;42.626;23.200;2022-10-24T13:24:29;14.33;;;6.47;;
1775;SDS011;885;42.626;23.200;2022-10-24T13:27:20;10.23;;;6.40;;
1775;SDS011;885;42.626;23.200;2022-10-24T13:30:00;15.70;;;6.03;;
1775;SDS011;885;42.626;23.200;2022-10-24T13:32:49;17.10;;;7.23;;
1775;SDS011;885;42.626;23.200;2022-10-24T13:35:17;11.70;;;6.00;;
1775;SDS011;885;42.626;23.200;2022-10-24T13:37:49;12.20;;;6.70;;
1775;SDS011;885;42.626;23.200;2022-10-24T13:40:24;16.20;;;6.03;;
1775;SDS011;885;42.626;23.200;2022-10-24T13:42:55;12.93;;;5.63;;
1775;SDS011;885;42.626;23.200;2022-10-24T13:45:26;15.20;;;7.63;;
1775;SDS011;885;42.626;23.200;2022-10-24T13:48:00;11.40;;;5.70;;
1775;SDS011;885;42.626;23.200;2022-10-24T13:50:32;14.13;;;6.23;;
1775;SDS011;885;42.626;23.200;2022-10-24T13:53:03;10.03;;;6.20;;
1775;SDS011;885;42.626;23.200;2022-10-24T13:55:41;15.13;;;6.27;;
1775;SDS011;885;42.626;23.200;2022-10-24T13:58:14;12.03;;;6.00;;
1775;SDS011;885;42.626;23.200;2022-10-24T14:00:44;15.13;;;6.90;;
1775;SDS011;885;42.626;23.200;2022-10-24T14:03:17;10.20;;;6.50;;
1775;SDS011;885;42.626;23.200;2022-10-24T14:05:50;13.10;;;5.63;;
1775;SDS011;885;42.626;23.200;2022-10-24T14:08:19;18.33;;;5.83;;
1775;SDS011;885;42.626;23.200;2022-10-24T14:10:48;15.50;;;5.70;;
1775;SDS011;885;42.626;23.200;2022-10-24T14:13:17;13.30;;;5.80;;
1775;SDS011;885;42.626;23.200;2022-10-24T14:15:45;16.30;;;6.40;;
1775;SDS011;885;42.626;23.200;2022-10-24T14:18:16;14.60;;;6.40;;
1775;SDS011;885;42.626;23.200;2022-10-24T14:20:49;15.97;;;6.40;;
1775;SDS011;885;42.626;23.200;2022-10-24T14:23:22;9.30;;;5.73;;
1775;SDS011;885;42.626;23.200;2022-10-24T14:25:55;15.50;;;6.37;;
1775;SDS011;885;42.626;23.200;2022-10-24T14:28:25;9.77;;;5.70;;
1775;SDS011;885;42.626;23.200;2022-10-24T14:30:53;12.37;;;6.07;;
1775;SDS011;885;42.626;23.200;2022-10-24T14:33:24;13.43;;;6.47;;
1775;SDS011;885;42.626;23.200;2022-10-24T14:35:56;13.57;;;6.27;;
1775;SDS011;885;42.626;23.200;2022-10-24T14:38:25;11.23;;;5.90;;
1775;SDS011;885;42.626;23.200;2022-10-24T14:40:53;9.53;;;5.30;;
1775;SDS011;885;42.626;23.200;2022-10-24T14:43:23;15.67;;;7.00;;
1775;SDS011;885;42.626;23.200;2022-10-24T14:46:04;12.07;;;6.30;;
1775;SDS011;885;42.626;23.200;2022-10-24T14:48:35;13.03;;;6.30;;
1775;SDS011;885;42.626;23.200;2022-10-24T14:51:03;11.30;;;5.10;;
1775;SDS011;885;42.626;23.200;2022-10-24T14:53:33;13.63;;;5.43;;
1775;SDS011;885;42.626;23.200;2022-10-24T14:56:03;13.77;;;5.53;;
1775;SDS011;885;42.626;23.200;2022-10-24T14:58:42;15.03;;;5.40;;
1775;SDS011;885;42.626;23.200;2022-10-24T15:01:14;14.20;;;4.10;;
1775;SDS011;885;42.626;23.200;2022-10-24T15:03:50;17.90;;;5.90;;
1775;SDS011;885;42.626;23.200;2022-10-24T15:06:20;13.13;;;4.80;;
1775;SDS011;885;42.626;23.200;2022-10-24T15:08:59;13.80;;;4.87;;
1775;SDS011;885;42.626;23.200;2022-10-24T15:11:27;10.60;;;4.60;;
1775;SDS011;885;42.626;23.200;2022-10-24T15:13:56;11.07;;;4.80;;
1775;SDS011;885;42.626;23.200;2022-10-24T15:16:25;8.33;;;4.17;;
1775;SDS011;885;42.626;23.200;2022-10-24T15:18:55;15.13;;;5.43;;
1775;SDS011;885;42.626;23.200;2022-10-24T15:21:24;12.73;;;4.13;;
1775;SDS011;885;42.626;23.200;2022-10-24T15:23:54;10.67;;;4.50;;
1775;SDS011;885;42.626;23.200;2022-10-24T15:26:23;8.67;;;4.67;;
1775;SDS011;885;42.626;23.200;2022-10-24T15:28:53;9.17;;;4.17;;
1775;SDS011;885;42.626;23.200;2022-10-24T15:31:23;14.97;;;4.77;;
1775;SDS011;885;42.626;23.200;2022-10-24T15:33:52;17.47;;;7.23;;
1775;SDS011;885;42.626;23.200;2022-10-24T15:36:21;89.30;;;10.77;;
1775;SDS011;885;42.626;23.200;2022-10-24T15:38:54;11.40;;;4.93;;
1775;SDS011;885;42.626;23.200;2022-10-24T15:41:22;11.80;;;4.20;;
1775;SDS011;885;42.626;23.200;2022-10-24T15:43:49;14.37;;;4.50;;
1775;SDS011;885;42.626;23.200;2022-10-24T15:46:16;16.67;;;4.37;;
1775;SDS011;885;42.626;23.200;2022-10-24T15:48:42;14.80;;;4.43;;
1775;SDS011;885;42.626;23.200;2022-10-24T15:51:12;16.17;;;4.10;;